sensor_id;sensor_type;location;lat;lon;timestamp;pressure;altitude;pressure_sealevel;temperature;humidity
49759;BME280;35654;46.080;11.118;2022-07-06T00:02:25;99557.66;;;23.64;68.61
49759;BME280;35654;46.080;11.118;2022-07-06T00:04:52;99554.53;;;23.69;68.27
49759;BME280;35654;46.080;11.118;2022-07-06T00:07:19;99553.34;;;23.70;67.81
49759;BME280;35654;46.080;11.118;2022-07-06T00:09:46;99556.84;;;23.64;68.62
49759;BME280;35654;46.080;11.118;2022-07-06T00:12:12;99552.09;;;23.68;68.71
49759;BME280;35654;46.080;11.118;2022-07-06T00:14:39;99553.63;;;23.62;68.39
49759;BME280;35654;46.080;11.118;2022-07-06T00:17:06;99566.34;;;23.59;68.67
49759;BME280;35654;46.080;11.118;2022-07-06T00:19:32;99559.59;;;23.60;68.91
49759;BME280;35654;46.080;11.118;2022-07-06T00:21:59;99563.56;;;23.59;68.94
49759;BME280;35654;46.080;11.118;2022-07-06T00:24:26;99565.88;;;23.54;68.80
49759;BME280;35654;46.080;11.118;2022-07-06T00:26:51;99572.53;;;23.46;69.11
49759;BME280;35654;46.080;11.118;2022-07-06T00:29:18;99572.44;;;23.39;69.42
49759;BME280;35654;46.080;11.118;2022-07-06T00:31:45;99573.63;;;23.38;69.35
49759;BME280;35654;46.080;11.118;2022-07-06T00:34:13;99577.06;;;23.31;69.98
49759;BME280;35654;46.080;11.118;2022-07-06T00:36:40;99569.13;;;23.33;69.05
49759;BME280;35654;46.080;11.118;2022-07-06T00:39:06;99581.00;;;23.27;69.87
49759;BME280;35654;46.080;11.118;2022-07-06T00:41:33;99577.63;;;23.17;69.58
49759;BME280;35654;46.080;11.118;2022-07-06T00:43:59;99568.41;;;23.13;70.22
49759;BME280;35654;46.080;11.118;2022-07-06T00:46:32;99568.34;;;23.10;70.01
49759;BME280;35654;46.080;11.118;2022-07-06T00:48:59;99562.00;;;23.13;70.21
49759;BME280;35654;46.080;11.118;2022-07-06T00:51:30;99563.25;;;23.15;69.73
49759;BME280;35654;46.080;11.118;2022-07-06T00:54:03;99564.31;;;23.07;70.23
49759;BME280;35654;46.080;11.118;2022-07-06T00:56:31;99570.53;;;22.97;69.91
49759;BME280;35654;46.080;11.118;2022-07-06T00:59:01;99565.97;;;22.89;65.54
49759;BME280;35654;46.080;11.118;2022-07-06T01:01:28;99560.19;;;22.79;65.20
49759;BME280;35654;46.080;11.118;2022-07-06T01:03:55;99559.78;;;22.77;66.09
49759;BME280;35654;46.080;11.118;2022-07-06T01:06:22;99569.28;;;22.72;67.48
49759;BME280;35654;46.080;11.118;2022-07-06T01:08:49;99572.63;;;22.62;67.20
49759;BME280;35654;46.080;11.118;2022-07-06T01:11:17;99575.00;;;22.60;67.02
49759;BME280;35654;46.080;11.118;2022-07-06T01:13:45;99569.41;;;22.60;65.98
49759;BME280;35654;46.080;11.118;2022-07-06T01:16:13;99582.13;;;22.57;65.17
49759;BME280;35654;46.080;11.118;2022-07-06T01:18:41;99574.19;;;22.59;64.19
49759;BME280;35654;46.080;11.118;2022-07-06T01:21:09;99576.22;;;22.62;63.99
49759;BME280;35654;46.080;11.118;2022-07-06T01:23:43;99575.53;;;22.66;65.03
49759;BME280;35654;46.080;11.118;2022-07-06T01:26:26;99573.97;;;22.68;65.24
49759;BME280;35654;46.080;11.118;2022-07-06T01:28:52;99578.75;;;22.68;65.68
49759;BME280;35654;46.080;11.118;2022-07-06T01:31:21;99578.81;;;22.71;66.31
49759;BME280;35654;46.080;11.118;2022-07-06T01:33:56;99579.97;;;22.70;66.53
49759;BME280;35654;46.080;11.118;2022-07-06T01:36:23;99585.72;;;22.58;67.26
49759;BME280;35654;46.080;11.118;2022-07-06T01:38:54;99580.81;;;22.51;67.84
49759;BME280;35654;46.080;11.118;2022-07-06T01:41:21;99581.22;;;22.53;68.46
49759;BME280;35654;46.080;11.118;2022-07-06T01:43:48;99583.22;;;22.53;68.21
49759;BME280;35654;46.080;11.118;2022-07-06T01:46:14;99586.00;;;22.53;70.55
49759;BME280;35654;46.080;11.118;2022-07-06T01:48:42;99581.97;;;22.50;71.39
49759;BME280;35654;46.080;11.118;2022-07-06T01:51:08;99589.56;;;22.50;71.50
49759;BME280;35654;46.080;11.118;2022-07-06T01:53:35;99581.91;;;22.47;71.82
49759;BME280;35654;46.080;11.118;2022-07-06T01:56:02;99581.09;;;22.46;71.59
49759;BME280;35654;46.080;11.118;2022-07-06T01:58:29;99587.78;;;22.42;72.45
49759;BME280;35654;46.080;11.118;2022-07-06T02:00:55;99592.78;;;22.33;73.12
49759;BME280;35654;46.080;11.118;2022-07-06T02:03:22;99596.31;;;22.30;73.62
49759;BME280;35654;46.080;11.118;2022-07-06T02:05:48;99593.00;;;22.24;74.35
49759;BME280;35654;46.080;11.118;2022-07-06T02:08:15;99601.69;;;22.19;73.02
49759;BME280;35654;46.080;11.118;2022-07-06T02:10:42;99605.13;;;22.13;71.67
49759;BME280;35654;46.080;11.118;2022-07-06T02:13:09;99611.41;;;22.10;72.10
49759;BME280;35654;46.080;11.118;2022-07-06T02:15:36;99605.84;;;22.10;72.37
49759;BME280;35654;46.080;11.118;2022-07-06T02:18:03;99619.78;;;22.10;72.04
49759;BME280;35654;46.080;11.118;2022-07-06T02:20:30;99624.22;;;22.11;71.99
49759;BME280;35654;46.080;11.118;2022-07-06T02:22:57;99618.44;;;22.03;69.34
49759;BME280;35654;46.080;11.118;2022-07-06T02:25:23;99611.91;;;21.96;68.76
49759;BME280;35654;46.080;11.118;2022-07-06T02:27:50;99618.94;;;21.90;68.96
49759;BME280;35654;46.080;11.118;2022-07-06T02:30:16;99615.34;;;21.89;69.70
49759;BME280;35654;46.080;11.118;2022-07-06T02:32:43;99618.94;;;21.90;69.54
49759;BME280;35654;46.080;11.118;2022-07-06T02:35:09;99615.97;;;21.83;69.14
49759;BME280;35654;46.080;11.118;2022-07-06T02:37:37;99617.78;;;21.75;69.27
49759;BME280;35654;46.080;11.118;2022-07-06T02:40:05;99617.19;;;21.66;69.37
49759;BME280;35654;46.080;11.118;2022-07-06T02:42:32;99615.47;;;21.62;69.61
49759;BME280;35654;46.080;11.118;2022-07-06T02:44:59;99617.38;;;21.58;69.83
49759;BME280;35654;46.080;11.118;2022-07-06T02:47:26;99624.50;;;21.55;70.12
49759;BME280;35654;46.080;11.118;2022-07-06T02:49:53;99629.25;;;21.55;70.63
49759;BME280;35654;46.080;11.118;2022-07-06T02:52:20;99628.00;;;21.52;70.38
49759;BME280;35654;46.080;11.118;2022-07-06T02:54:46;99625.94;;;21.49;70.53
49759;BME280;35654;46.080;11.118;2022-07-06T02:57:15;99630.31;;;21.50;71.01
49759;BME280;35654;46.080;11.118;2022-07-06T02:59:42;99628.72;;;21.49;70.81
49759;BME280;35654;46.080;11.118;2022-07-06T03:02:09;99634.53;;;21.44;71.00
49759;BME280;35654;46.080;11.118;2022-07-06T03:04:36;99636.00;;;21.38;70.61
49759;BME280;35654;46.080;11.118;2022-07-06T03:07:03;99639.13;;;21.36;70.79
49759;BME280;35654;46.080;11.118;2022-07-06T03:09:29;99650.56;;;21.31;70.49
49759;BME280;35654;46.080;11.118;2022-07-06T03:11:56;99654.22;;;21.20;71.07
49759;BME280;35654;46.080;11.118;2022-07-06T03:14:22;99651.81;;;21.18;71.01
49759;BME280;35654;46.080;11.118;2022-07-06T03:16:51;99657.66;;;21.13;71.48
49759;BME280;35654;46.080;11.118;2022-07-06T03:19:19;99656.13;;;21.16;71.78
49759;BME280;35654;46.080;11.118;2022-07-06T03:21:45;99660.44;;;21.13;71.18
49759;BME280;35654;46.080;11.118;2022-07-06T03:24:12;99656.03;;;21.12;71.96
49759;BME280;35654;46.080;11.118;2022-07-06T03:26:38;99655.94;;;21.09;71.76
49759;BME280;35654;46.080;11.118;2022-07-06T03:29:05;99659.91;;;21.08;72.06
49759;BME280;35654;46.080;11.118;2022-07-06T03:31:31;99659.38;;;21.06;71.96
49759;BME280;35654;46.080;11.118;2022-07-06T03:33:58;99663.53;;;20.96;72.28
49759;BME280;35654;46.080;11.118;2022-07-06T03:36:25;99669.00;;;20.92;72.29
49759;BME280;35654;46.080;11.118;2022-07-06T03:38:51;99667.06;;;20.81;72.65
49759;BME280;35654;46.080;11.118;2022-07-06T03:41:18;99668.69;;;20.82;72.41
49759;BME280;35654;46.080;11.118;2022-07-06T03:43:45;99671.38;;;20.78;71.00
49759;BME280;35654;46.080;11.118;2022-07-06T03:46:11;99676.13;;;20.78;71.27
49759;BME280;35654;46.080;11.118;2022-07-06T03:48:37;99676.50;;;20.76;71.50
49759;BME280;35654;46.080;11.118;2022-07-06T03:51:03;99680.47;;;20.63;71.61
49759;BME280;35654;46.080;11.118;2022-07-06T03:53:30;99681.56;;;20.59;71.62
49759;BME280;35654;46.080;11.118;2022-07-06T03:55:56;99681.66;;;20.62;71.42
49759;BME280;35654;46.080;11.118;2022-07-06T03:58:41;99676.91;;;20.63;70.66
49759;BME280;35654;46.080;11.118;2022-07-06T04:01:08;99682.63;;;20.54;70.34
49759;BME280;35654;46.080;11.118;2022-07-06T04:03:34;99686.09;;;20.51;69.44
49759;BME280;35654;46.080;11.118;2022-07-06T04:06:01;99691.88;;;20.58;70.07
49759;BME280;35654;46.080;11.118;2022-07-06T04:08:28;99694.06;;;20.65;70.10
49759;BME280;35654;46.080;11.118;2022-07-06T04:10:54;99694.66;;;20.58;69.54
49759;BME280;35654;46.080;11.118;2022-07-06T04:13:20;99696.28;;;20.59;70.04
49759;BME280;35654;46.080;11.118;2022-07-06T04:15:47;99692.41;;;20.64;69.02
49759;BME280;35654;46.080;11.118;2022-07-06T04:18:13;99698.47;;;20.66;69.03
49759;BME280;35654;46.080;11.118;2022-07-06T04:20:40;99695.41;;;20.71;69.06
49759;BME280;35654;46.080;11.118;2022-07-06T04:23:07;99697.38;;;20.70;69.18
49759;BME280;35654;46.080;11.118;2022-07-06T04:25:34;99692.63;;;20.71;69.21
49759;BME280;35654;46.080;11.118;2022-07-06T04:28:02;99698.28;;;20.74;69.97
49759;BME280;35654;46.080;11.118;2022-07-06T04:30:29;99698.75;;;20.76;70.19
49759;BME280;35654;46.080;11.118;2022-07-06T04:32:56;99689.59;;;20.76;70.61
49759;BME280;35654;46.080;11.118;2022-07-06T04:35:23;99696.88;;;20.80;70.44
49759;BME280;35654;46.080;11.118;2022-07-06T04:37:49;99700.03;;;20.79;70.81
49759;BME280;35654;46.080;11.118;2022-07-06T04:40:16;99702.25;;;20.73;71.34
49759;BME280;35654;46.080;11.118;2022-07-06T04:42:43;99701.06;;;20.74;71.00
49759;BME280;35654;46.080;11.118;2022-07-06T04:45:10;99703.16;;;20.77;71.31
49759;BME280;35654;46.080;11.118;2022-07-06T04:47:36;99702.91;;;20.82;71.56
49759;BME280;35654;46.080;11.118;2022-07-06T04:50:03;99705.94;;;20.77;70.97
49759;BME280;35654;46.080;11.118;2022-07-06T04:52:30;99708.25;;;20.75;71.97
49759;BME280;35654;46.080;11.118;2022-07-06T04:54:57;99713.13;;;20.78;70.92
49759;BME280;35654;46.080;11.118;2022-07-06T04:57:23;99712.41;;;20.81;71.02
49759;BME280;35654;46.080;11.118;2022-07-06T04:59:52;99704.50;;;20.83;70.60
49759;BME280;35654;46.080;11.118;2022-07-06T05:02:19;99696.47;;;20.94;69.62
49759;BME280;35654;46.080;11.118;2022-07-06T05:04:47;99702.84;;;20.95;68.30
49759;BME280;35654;46.080;11.118;2022-07-06T05:07:15;99712.09;;;20.99;67.95
49759;BME280;35654;46.080;11.118;2022-07-06T05:09:40;99699.31;;;21.10;65.63
49759;BME280;35654;46.080;11.118;2022-07-06T05:14:34;99700.22;;;21.14;65.54
49759;BME280;35654;46.080;11.118;2022-07-06T05:17:01;99701.84;;;21.15;64.50
49759;BME280;35654;46.080;11.118;2022-07-06T05:19:27;99699.97;;;21.19;64.43
49759;BME280;35654;46.080;11.118;2022-07-06T05:21:54;99701.56;;;21.20;65.18
49759;BME280;35654;46.080;11.118;2022-07-06T05:24:20;99714.06;;;21.26;64.28
49759;BME280;35654;46.080;11.118;2022-07-06T05:26:46;99710.84;;;21.24;64.07
49759;BME280;35654;46.080;11.118;2022-07-06T05:29:13;99710.69;;;21.32;63.95
49759;BME280;35654;46.080;11.118;2022-07-06T05:31:40;99717.94;;;21.37;63.60
49759;BME280;35654;46.080;11.118;2022-07-06T05:34:07;99709.75;;;21.44;63.91
49759;BME280;35654;46.080;11.118;2022-07-06T05:36:33;99715.44;;;21.47;63.18
49759;BME280;35654;46.080;11.118;2022-07-06T05:39:00;99724.16;;;21.46;62.62
49759;BME280;35654;46.080;11.118;2022-07-06T05:41:25;99720.00;;;21.56;62.65
49759;BME280;35654;46.080;11.118;2022-07-06T05:43:51;99728.03;;;21.57;62.39
49759;BME280;35654;46.080;11.118;2022-07-06T05:46:17;99723.88;;;21.67;62.79
49759;BME280;35654;46.080;11.118;2022-07-06T05:48:44;99726.41;;;21.72;63.29
49759;BME280;35654;46.080;11.118;2022-07-06T05:51:29;99728.28;;;21.83;62.81
49759;BME280;35654;46.080;11.118;2022-07-06T05:53:55;99726.97;;;21.93;61.73
49759;BME280;35654;46.080;11.118;2022-07-06T05:56:20;99723.34;;;21.92;62.13
49759;BME280;35654;46.080;11.118;2022-07-06T05:58:48;99723.78;;;21.94;61.82
49759;BME280;35654;46.080;11.118;2022-07-06T06:01:15;99724.69;;;21.98;61.24
49759;BME280;35654;46.080;11.118;2022-07-06T06:03:42;99721.34;;;22.09;61.61
49759;BME280;35654;46.080;11.118;2022-07-06T06:06:08;99719.03;;;22.11;60.75
49759;BME280;35654;46.080;11.118;2022-07-06T06:08:35;99713.25;;;22.19;60.93
49759;BME280;35654;46.080;11.118;2022-07-06T06:11:02;99716.63;;;22.28;60.20
49759;BME280;35654;46.080;11.118;2022-07-06T06:13:29;99710.50;;;22.23;59.38
49759;BME280;35654;46.080;11.118;2022-07-06T06:15:55;99715.09;;;22.31;58.99
49759;BME280;35654;46.080;11.118;2022-07-06T06:18:22;99718.91;;;22.42;58.61
49759;BME280;35654;46.080;11.118;2022-07-06T06:20:49;99715.06;;;22.46;58.30
49759;BME280;35654;46.080;11.118;2022-07-06T06:23:16;99723.22;;;22.55;56.89
49759;BME280;35654;46.080;11.118;2022-07-06T06:25:41;99722.47;;;22.58;56.20
49759;BME280;35654;46.080;11.118;2022-07-06T06:28:08;99727.16;;;22.70;56.29
49759;BME280;35654;46.080;11.118;2022-07-06T06:30:35;99721.28;;;22.75;56.09
49759;BME280;35654;46.080;11.118;2022-07-06T06:33:19;99721.91;;;22.87;55.17
49759;BME280;35654;46.080;11.118;2022-07-06T06:35:55;99720.13;;;22.98;54.05
49759;BME280;35654;46.080;11.118;2022-07-06T06:38:23;99723.59;;;23.11;53.14
49759;BME280;35654;46.080;11.118;2022-07-06T06:40:52;99724.91;;;23.17;52.61
49759;BME280;35654;46.080;11.118;2022-07-06T06:43:20;99726.16;;;23.19;52.73
49759;BME280;35654;46.080;11.118;2022-07-06T06:45:47;99721.63;;;23.34;52.01
49759;BME280;35654;46.080;11.118;2022-07-06T06:48:14;99714.44;;;23.33;50.69
49759;BME280;35654;46.080;11.118;2022-07-06T06:50:40;99714.34;;;23.49;50.87
49759;BME280;35654;46.080;11.118;2022-07-06T06:53:07;99716.22;;;23.64;49.75
49759;BME280;35654;46.080;11.118;2022-07-06T06:55:33;99720.50;;;23.58;49.84
49759;BME280;35654;46.080;11.118;2022-07-06T06:58:00;99716.22;;;23.64;48.42
49759;BME280;35654;46.080;11.118;2022-07-06T07:00:27;99721.53;;;23.72;47.79
49759;BME280;35654;46.080;11.118;2022-07-06T07:02:54;99720.91;;;23.83;48.25
49759;BME280;35654;46.080;11.118;2022-07-06T07:05:20;99717.75;;;23.84;48.01
49759;BME280;35654;46.080;11.118;2022-07-06T07:07:47;99712.94;;;23.85;48.17
49759;BME280;35654;46.080;11.118;2022-07-06T07:10:14;99716.69;;;23.92;47.43
49759;BME280;35654;46.080;11.118;2022-07-06T07:12:47;99711.38;;;23.87;47.37
49759;BME280;35654;46.080;11.118;2022-07-06T07:15:15;99700.84;;;23.77;47.44
49759;BME280;35654;46.080;11.118;2022-07-06T07:17:42;99697.94;;;23.70;48.21
49759;BME280;35654;46.080;11.118;2022-07-06T07:20:10;99695.88;;;23.90;49.14
49759;BME280;35654;46.080;11.118;2022-07-06T07:22:36;99694.22;;;24.11;46.88
49759;BME280;35654;46.080;11.118;2022-07-06T07:25:04;99683.25;;;24.25;46.34
49759;BME280;35654;46.080;11.118;2022-07-06T07:27:31;99696.47;;;24.28;45.99
49759;BME280;35654;46.080;11.118;2022-07-06T07:29:57;99689.44;;;24.42;44.82
49759;BME280;35654;46.080;11.118;2022-07-06T07:32:24;99692.03;;;24.54;44.85
49759;BME280;35654;46.080;11.118;2022-07-06T07:34:51;99682.69;;;24.76;44.33
49759;BME280;35654;46.080;11.118;2022-07-06T07:37:17;99682.56;;;24.99;43.86
49759;BME280;35654;46.080;11.118;2022-07-06T07:39:44;99685.59;;;25.20;43.94
49759;BME280;35654;46.080;11.118;2022-07-06T07:42:11;99682.41;;;25.18;44.19
49759;BME280;35654;46.080;11.118;2022-07-06T07:44:37;99678.84;;;25.24;44.07
49759;BME280;35654;46.080;11.118;2022-07-06T07:47:05;99672.63;;;25.45;43.63
49759;BME280;35654;46.080;11.118;2022-07-06T07:49:32;99672.88;;;25.70;41.65
49759;BME280;35654;46.080;11.118;2022-07-06T07:51:59;99680.06;;;25.67;41.37
49759;BME280;35654;46.080;11.118;2022-07-06T07:54:26;99676.63;;;25.44;41.57
49759;BME280;35654;46.080;11.118;2022-07-06T07:56:52;99673.25;;;25.65;41.88
49759;BME280;35654;46.080;11.118;2022-07-06T07:59:20;99668.63;;;25.90;41.13
49759;BME280;35654;46.080;11.118;2022-07-06T08:01:46;99662.91;;;25.76;41.11
49759;BME280;35654;46.080;11.118;2022-07-06T08:04:13;99659.50;;;26.03;40.83
49759;BME280;35654;46.080;11.118;2022-07-06T08:06:40;99666.56;;;25.83;40.87
49759;BME280;35654;46.080;11.118;2022-07-06T08:09:07;99665.72;;;25.76;40.80
49759;BME280;35654;46.080;11.118;2022-07-06T08:11:34;99665.34;;;25.81;39.89
49759;BME280;35654;46.080;11.118;2022-07-06T08:14:01;99663.72;;;25.80;40.00
49759;BME280;35654;46.080;11.118;2022-07-06T08:16:28;99670.25;;;25.94;39.58
49759;BME280;35654;46.080;11.118;2022-07-06T08:18:54;99659.69;;;25.77;41.10
49759;BME280;35654;46.080;11.118;2022-07-06T08:21:19;99658.28;;;26.01;40.76
49759;BME280;35654;46.080;11.118;2022-07-06T08:23:45;99653.47;;;26.01;41.34
49759;BME280;35654;46.080;11.118;2022-07-06T08:26:11;99647.97;;;26.19;41.45
49759;BME280;35654;46.080;11.118;2022-07-06T08:28:36;99644.91;;;26.42;41.07
49759;BME280;35654;46.080;11.118;2022-07-06T08:31:01;99643.72;;;26.46;41.10
49759;BME280;35654;46.080;11.118;2022-07-06T08:33:27;99639.31;;;26.52;40.80
49759;BME280;35654;46.080;11.118;2022-07-06T08:35:52;99628.50;;;26.58;40.19
49759;BME280;35654;46.080;11.118;2022-07-06T08:38:17;99636.03;;;26.29;39.96
49759;BME280;35654;46.080;11.118;2022-07-06T08:40:44;99628.09;;;26.52;40.58
49759;BME280;35654;46.080;11.118;2022-07-06T08:43:11;99624.91;;;26.61;40.58
49759;BME280;35654;46.080;11.118;2022-07-06T08:45:39;99616.56;;;26.79;37.49
49759;BME280;35654;46.080;11.118;2022-07-06T08:48:05;99610.16;;;26.82;37.86
49759;BME280;35654;46.080;11.118;2022-07-06T08:50:33;99611.38;;;26.91;37.52
49759;BME280;35654;46.080;11.118;2022-07-06T08:53:00;99608.22;;;27.07;37.51
49759;BME280;35654;46.080;11.118;2022-07-06T08:55:26;99608.22;;;27.07;37.36
49759;BME280;35654;46.080;11.118;2022-07-06T08:57:54;99609.00;;;27.04;36.60
49759;BME280;35654;46.080;11.118;2022-07-06T09:00:20;99613.44;;;27.23;37.24
49759;BME280;35654;46.080;11.118;2022-07-06T09:02:45;99603.81;;;27.27;37.21
49759;BME280;35654;46.080;11.118;2022-07-06T09:05:13;99600.16;;;27.19;38.09
49759;BME280;35654;46.080;11.118;2022-07-06T09:07:39;99594.59;;;27.41;38.26
49759;BME280;35654;46.080;11.118;2022-07-06T09:10:07;99605.41;;;27.70;37.85
49759;BME280;35654;46.080;11.118;2022-07-06T09:12:33;99592.13;;;27.85;36.36
49759;BME280;35654;46.080;11.118;2022-07-06T09:14:58;99589.72;;;27.87;35.22
49759;BME280;35654;46.080;11.118;2022-07-06T09:17:27;99594.94;;;27.85;35.85
49759;BME280;35654;46.080;11.118;2022-07-06T09:19:54;99583.28;;;27.90;35.72
49759;BME280;35654;46.080;11.118;2022-07-06T09:22:31;99593.28;;;28.12;34.23
49759;BME280;35654;46.080;11.118;2022-07-06T09:25:05;99583.97;;;28.33;34.76
49759;BME280;35654;46.080;11.118;2022-07-06T09:27:31;99579.53;;;28.36;34.77
49759;BME280;35654;46.080;11.118;2022-07-06T09:30:00;99580.72;;;28.38;33.21
49759;BME280;35654;46.080;11.118;2022-07-06T09:32:28;99575.06;;;28.45;34.84
49759;BME280;35654;46.080;11.118;2022-07-06T09:34:54;99574.97;;;28.59;34.13
49759;BME280;35654;46.080;11.118;2022-07-06T09:37:22;99567.66;;;28.79;33.43
49759;BME280;35654;46.080;11.118;2022-07-06T09:39:50;99573.00;;;28.63;33.17
49759;BME280;35654;46.080;11.118;2022-07-06T09:42:15;99570.09;;;28.77;32.51
49759;BME280;35654;46.080;11.118;2022-07-06T09:44:41;99570.75;;;28.99;30.65
49759;BME280;35654;46.080;11.118;2022-07-06T09:47:11;99565.06;;;29.06;31.38
49759;BME280;35654;46.080;11.118;2022-07-06T09:49:39;99564.00;;;28.82;30.76
49759;BME280;35654;46.080;11.118;2022-07-06T09:52:08;99555.50;;;28.89;31.05
49759;BME280;35654;46.080;11.118;2022-07-06T09:54:37;99557.66;;;29.26;31.27
49759;BME280;35654;46.080;11.118;2022-07-06T09:57:05;99553.84;;;29.47;30.79
49759;BME280;35654;46.080;11.118;2022-07-06T09:59:33;99548.06;;;29.65;31.62
49759;BME280;35654;46.080;11.118;2022-07-06T10:02:04;99541.84;;;29.77;30.97
49759;BME280;35654;46.080;11.118;2022-07-06T10:04:31;99534.00;;;29.58;31.21
49759;BME280;35654;46.080;11.118;2022-07-06T10:06:58;99528.13;;;29.82;31.20
49759;BME280;35654;46.080;11.118;2022-07-06T10:09:27;99537.16;;;29.63;30.92
49759;BME280;35654;46.080;11.118;2022-07-06T10:11:57;99524.19;;;29.73;31.84
49759;BME280;35654;46.080;11.118;2022-07-06T10:14:25;99528.09;;;29.86;31.05
49759;BME280;35654;46.080;11.118;2022-07-06T10:16:55;99514.59;;;30.00;30.20
49759;BME280;35654;46.080;11.118;2022-07-06T10:19:24;99517.63;;;30.17;29.06
49759;BME280;35654;46.080;11.118;2022-07-06T10:21:51;99513.31;;;30.35;28.73
49759;BME280;35654;46.080;11.118;2022-07-06T10:24:19;99501.81;;;30.23;28.20
49759;BME280;35654;46.080;11.118;2022-07-06T10:26:47;99501.69;;;30.60;29.07
49759;BME280;35654;46.080;11.118;2022-07-06T10:29:14;99497.72;;;30.84;28.86
49759;BME280;35654;46.080;11.118;2022-07-06T10:31:45;99489.50;;;30.93;27.49
49759;BME280;35654;46.080;11.118;2022-07-06T10:34:14;99494.13;;;30.80;26.10
49759;BME280;35654;46.080;11.118;2022-07-06T10:36:43;99488.16;;;31.01;25.17
49759;BME280;35654;46.080;11.118;2022-07-06T10:39:11;99493.72;;;30.82;25.54
49759;BME280;35654;46.080;11.118;2022-07-06T10:41:56;99486.06;;;31.29;23.49
49759;BME280;35654;46.080;11.118;2022-07-06T10:44:24;99479.59;;;31.28;24.36
49759;BME280;35654;46.080;11.118;2022-07-06T10:49:20;99478.88;;;31.47;25.54
49759;BME280;35654;46.080;11.118;2022-07-06T10:51:48;99468.88;;;31.62;24.54
49759;BME280;35654;46.080;11.118;2022-07-06T10:54:17;99472.59;;;31.99;23.51
49759;BME280;35654;46.080;11.118;2022-07-06T10:56:49;99475.94;;;32.13;23.98
49759;BME280;35654;46.080;11.118;2022-07-06T10:59:19;99464.16;;;32.35;24.43
49759;BME280;35654;46.080;11.118;2022-07-06T11:02:19;99461.28;;;32.54;22.78
49759;BME280;35654;46.080;11.118;2022-07-06T11:04:46;99459.06;;;32.62;22.82
49759;BME280;35654;46.080;11.118;2022-07-06T11:07:16;99456.84;;;32.17;21.13
49759;BME280;35654;46.080;11.118;2022-07-06T11:09:55;99446.91;;;32.09;20.76
49759;BME280;35654;46.080;11.118;2022-07-06T11:12:23;99453.88;;;32.05;20.45
49759;BME280;35654;46.080;11.118;2022-07-06T11:14:50;99457.50;;;32.05;20.28
49759;BME280;35654;46.080;11.118;2022-07-06T11:17:18;99445.84;;;32.00;21.19
49759;BME280;35654;46.080;11.118;2022-07-06T11:20:10;99444.34;;;32.15;22.66
49759;BME280;35654;46.080;11.118;2022-07-06T11:22:37;99455.31;;;32.13;21.75
49759;BME280;35654;46.080;11.118;2022-07-06T11:25:05;99441.31;;;32.06;20.83
49759;BME280;35654;46.080;11.118;2022-07-06T11:27:33;99453.94;;;32.57;22.04
49759;BME280;35654;46.080;11.118;2022-07-06T11:29:59;99450.00;;;32.51;21.41
49759;BME280;35654;46.080;11.118;2022-07-06T11:32:26;99449.44;;;33.24;21.38
49759;BME280;35654;46.080;11.118;2022-07-06T11:34:52;99438.88;;;34.99;19.17
49759;BME280;35654;46.080;11.118;2022-07-06T11:37:18;99437.53;;;36.86;17.31
49759;BME280;35654;46.080;11.118;2022-07-06T11:39:46;99438.78;;;37.70;16.60
49759;BME280;35654;46.080;11.118;2022-07-06T11:42:15;99430.50;;;39.40;15.46
49759;BME280;35654;46.080;11.118;2022-07-06T11:44:44;99429.88;;;40.42;14.79
49759;BME280;35654;46.080;11.118;2022-07-06T11:47:12;99434.16;;;42.02;13.84
49759;BME280;35654;46.080;11.118;2022-07-06T11:49:40;99422.94;;;41.58;13.05
49759;BME280;35654;46.080;11.118;2022-07-06T11:52:09;99410.63;;;42.04;13.30
49759;BME280;35654;46.080;11.118;2022-07-06T11:54:37;99414.25;;;41.53;13.23
49759;BME280;35654;46.080;11.118;2022-07-06T11:57:04;99413.03;;;41.59;13.63
49759;BME280;35654;46.080;11.118;2022-07-06T11:59:34;99403.69;;;41.64;13.29
49759;BME280;35654;46.080;11.118;2022-07-06T12:02:06;99406.59;;;41.70;13.04
49759;BME280;35654;46.080;11.118;2022-07-06T12:04:36;99399.25;;;41.89;13.06
49759;BME280;35654;46.080;11.118;2022-07-06T12:07:05;99398.47;;;40.88;13.65
49759;BME280;35654;46.080;11.118;2022-07-06T12:09:35;99389.13;;;41.48;13.04
49759;BME280;35654;46.080;11.118;2022-07-06T12:12:03;99384.28;;;39.09;14.58
49759;BME280;35654;46.080;11.118;2022-07-06T12:14:35;99394.34;;;37.87;16.11
49759;BME280;35654;46.080;11.118;2022-07-06T12:19:33;99378.75;;;36.09;17.70
49759;BME280;35654;46.080;11.118;2022-07-06T12:22:00;99383.94;;;38.08;16.83
49759;BME280;35654;46.080;11.118;2022-07-06T12:24:29;99377.66;;;37.95;16.78
49759;BME280;35654;46.080;11.118;2022-07-06T12:26:58;99367.16;;;39.23;15.36
49759;BME280;35654;46.080;11.118;2022-07-06T12:29:25;99370.31;;;39.93;15.20
49759;BME280;35654;46.080;11.118;2022-07-06T12:31:55;99368.53;;;40.39;14.69
49759;BME280;35654;46.080;11.118;2022-07-06T12:34:24;99362.47;;;40.52;14.31
49759;BME280;35654;46.080;11.118;2022-07-06T12:36:55;99355.50;;;39.65;14.83
49759;BME280;35654;46.080;11.118;2022-07-06T12:39:28;99355.56;;;39.56;15.05
49759;BME280;35654;46.080;11.118;2022-07-06T12:42:02;99348.66;;;40.71;14.52
49759;BME280;35654;46.080;11.118;2022-07-06T12:44:30;99343.56;;;41.66;13.97
49759;BME280;35654;46.080;11.118;2022-07-06T12:47:06;99352.47;;;41.94;13.68
49759;BME280;35654;46.080;11.118;2022-07-06T12:49:35;99341.50;;;42.61;13.13
49759;BME280;35654;46.080;11.118;2022-07-06T12:57:24;99331.16;;;43.50;12.14
49759;BME280;35654;46.080;11.118;2022-07-06T12:59:57;99317.72;;;43.25;12.63
49759;BME280;35654;46.080;11.118;2022-07-06T13:02:35;99309.28;;;41.89;14.53
49759;BME280;35654;46.080;11.118;2022-07-06T13:05:10;99313.47;;;39.91;15.90
49759;BME280;35654;46.080;11.118;2022-07-06T13:07:38;99311.09;;;41.60;15.21